sensor_id;sensor_type;location;lat;lon;timestamp;temperature;humidity
851;DHT22;412;51.400;7.480;2022-08-19T00:00:38;21.30;99.90
851;DHT22;412;51.400;7.480;2022-08-19T00:03:04;21.20;99.90
851;DHT22;412;51.400;7.480;2022-08-19T00:05:30;21.20;99.90
851;DHT22;412;51.400;7.480;2022-08-19T00:07:57;21.20;99.90
851;DHT22;412;51.400;7.480;2022-08-19T00:10:22;21.20;99.90
851;DHT22;412;51.400;7.480;2022-08-19T00:12:50;21.20;99.90
851;DHT22;412;51.400;7.480;2022-08-19T00:15:18;21.20;99.90
851;DHT22;412;51.400;7.480;2022-08-19T00:17:45;21.20;99.90
851;DHT22;412;51.400;7.480;2022-08-19T00:20:14;21.20;99.90
851;DHT22;412;51.400;7.480;2022-08-19T00:22:43;21.20;99.90
851;DHT22;412;51.400;7.480;2022-08-19T00:25:09;21.20;99.90
851;DHT22;412;51.400;7.480;2022-08-19T00:27:35;21.10;99.90
851;DHT22;412;51.400;7.480;2022-08-19T00:30:02;21.10;99.90
851;DHT22;412;51.400;7.480;2022-08-19T00:32:30;21.10;99.90
851;DHT22;412;51.400;7.480;2022-08-19T00:34:56;21.10;99.90
851;DHT22;412;51.400;7.480;2022-08-19T00:37:23;21.10;99.90
851;DHT22;412;51.400;7.480;2022-08-19T00:39:50;21.10;99.90
851;DHT22;412;51.400;7.480;2022-08-19T00:42:17;21.10;99.90
851;DHT22;412;51.400;7.480;2022-08-19T00:44:43;21.10;99.90
851;DHT22;412;51.400;7.480;2022-08-19T00:47:09;21.10;99.90
851;DHT22;412;51.400;7.480;2022-08-19T00:49:40;21.00;99.90
851;DHT22;412;51.400;7.480;2022-08-19T00:52:09;21.00;99.90
851;DHT22;412;51.400;7.480;2022-08-19T00:54:38;21.00;99.90
851;DHT22;412;51.400;7.480;2022-08-19T00:57:07;21.00;99.90
851;DHT22;412;51.400;7.480;2022-08-19T00:59:36;20.90;99.90
851;DHT22;412;51.400;7.480;2022-08-19T01:02:03;20.90;99.90
851;DHT22;412;51.400;7.480;2022-08-19T01:04:29;20.90;99.90
851;DHT22;412;51.400;7.480;2022-08-19T01:06:56;20.90;99.90
851;DHT22;412;51.400;7.480;2022-08-19T01:09:22;20.90;99.90
851;DHT22;412;51.400;7.480;2022-08-19T01:11:48;20.80;99.90
851;DHT22;412;51.400;7.480;2022-08-19T01:14:15;20.80;99.90
851;DHT22;412;51.400;7.480;2022-08-19T01:16:43;20.70;99.90
851;DHT22;412;51.400;7.480;2022-08-19T01:22:02;20.70;99.90
851;DHT22;412;51.400;7.480;2022-08-19T01:24:28;20.70;99.90
851;DHT22;412;51.400;7.480;2022-08-19T01:26:56;20.60;99.90
851;DHT22;412;51.400;7.480;2022-08-19T01:29:22;20.70;99.90
851;DHT22;412;51.400;7.480;2022-08-19T01:31:47;20.70;99.90
851;DHT22;412;51.400;7.480;2022-08-19T01:34:14;20.70;99.90
851;DHT22;412;51.400;7.480;2022-08-19T01:36:42;20.60;99.90
851;DHT22;412;51.400;7.480;2022-08-19T01:39:15;20.60;99.90
851;DHT22;412;51.400;7.480;2022-08-19T01:41:41;20.60;99.90
851;DHT22;412;51.400;7.480;2022-08-19T01:44:08;20.60;99.90
851;DHT22;412;51.400;7.480;2022-08-19T01:46:34;20.60;99.90
851;DHT22;412;51.400;7.480;2022-08-19T01:49:02;20.60;99.90
851;DHT22;412;51.400;7.480;2022-08-19T01:51:28;20.70;99.90
851;DHT22;412;51.400;7.480;2022-08-19T01:53:54;20.60;99.90
851;DHT22;412;51.400;7.480;2022-08-19T01:56:20;20.60;99.90
851;DHT22;412;51.400;7.480;2022-08-19T01:58:51;20.60;99.90
851;DHT22;412;51.400;7.480;2022-08-19T02:01:18;20.60;99.90
851;DHT22;412;51.400;7.480;2022-08-19T02:03:44;20.60;99.90
851;DHT22;412;51.400;7.480;2022-08-19T02:06:11;20.60;99.90
851;DHT22;412;51.400;7.480;2022-08-19T02:08:38;20.60;99.90
851;DHT22;412;51.400;7.480;2022-08-19T02:11:06;20.60;99.90
851;DHT22;412;51.400;7.480;2022-08-19T02:13:33;20.60;99.90
851;DHT22;412;51.400;7.480;2022-08-19T02:15:59;20.60;99.90
851;DHT22;412;51.400;7.480;2022-08-19T02:18:25;20.60;99.90
851;DHT22;412;51.400;7.480;2022-08-19T02:20:52;20.60;99.90
851;DHT22;412;51.400;7.480;2022-08-19T02:23:18;20.60;99.90
851;DHT22;412;51.400;7.480;2022-08-19T02:25:46;20.60;99.90
851;DHT22;412;51.400;7.480;2022-08-19T02:28:12;20.60;99.90
851;DHT22;412;51.400;7.480;2022-08-19T02:30:40;20.60;99.90
851;DHT22;412;51.400;7.480;2022-08-19T02:33:06;20.60;99.90
851;DHT22;412;51.400;7.480;2022-08-19T02:35:32;20.60;99.90
851;DHT22;412;51.400;7.480;2022-08-19T02:37:58;20.60;99.90
851;DHT22;412;51.400;7.480;2022-08-19T02:40:49;20.60;99.90
851;DHT22;412;51.400;7.480;2022-08-19T02:43:17;20.60;99.90
851;DHT22;412;51.400;7.480;2022-08-19T02:45:45;20.60;99.90
851;DHT22;412;51.400;7.480;2022-08-19T02:48:11;20.60;99.90
851;DHT22;412;51.400;7.480;2022-08-19T02:50:39;20.60;99.90
851;DHT22;412;51.400;7.480;2022-08-19T02:53:05;20.60;99.90
851;DHT22;412;51.400;7.480;2022-08-19T02:55:33;20.60;99.90
851;DHT22;412;51.400;7.480;2022-08-19T02:57:58;20.60;99.90
851;DHT22;412;51.400;7.480;2022-08-19T03:00:25;20.60;99.90
851;DHT22;412;51.400;7.480;2022-08-19T03:02:52;20.60;99.90
851;DHT22;412;51.400;7.480;2022-08-19T03:05:18;20.50;99.90
851;DHT22;412;51.400;7.480;2022-08-19T03:07:43;20.50;99.90
851;DHT22;412;51.400;7.480;2022-08-19T03:10:09;20.50;99.90
851;DHT22;412;51.400;7.480;2022-08-19T03:12:37;20.50;99.90
851;DHT22;412;51.400;7.480;2022-08-19T03:15:05;20.50;99.90
851;DHT22;412;51.400;7.480;2022-08-19T03:17:31;20.50;99.90
851;DHT22;412;51.400;7.480;2022-08-19T03:19:57;20.50;99.90
851;DHT22;412;51.400;7.480;2022-08-19T03:22:22;20.50;99.90
851;DHT22;412;51.400;7.480;2022-08-19T03:24:48;20.50;99.90
851;DHT22;412;51.400;7.480;2022-08-19T03:27:14;20.50;99.90
851;DHT22;412;51.400;7.480;2022-08-19T03:29:40;20.40;99.90
851;DHT22;412;51.400;7.480;2022-08-19T03:32:06;20.40;99.90
851;DHT22;412;51.400;7.480;2022-08-19T03:34:33;20.40;99.90
851;DHT22;412;51.400;7.480;2022-08-19T03:37:04;20.40;99.90
851;DHT22;412;51.400;7.480;2022-08-19T03:39:30;20.50;99.90
851;DHT22;412;51.400;7.480;2022-08-19T03:41:56;20.40;99.90
851;DHT22;412;51.400;7.480;2022-08-19T03:44:23;20.50;99.90
851;DHT22;412;51.400;7.480;2022-08-19T03:46:54;20.50;99.90
851;DHT22;412;51.400;7.480;2022-08-19T03:49:21;20.50;99.90
851;DHT22;412;51.400;7.480;2022-08-19T03:51:49;20.50;99.90
851;DHT22;412;51.400;7.480;2022-08-19T03:54:18;20.50;99.90
851;DHT22;412;51.400;7.480;2022-08-19T03:56:46;20.50;99.90
851;DHT22;412;51.400;7.480;2022-08-19T03:59:19;20.50;99.90
851;DHT22;412;51.400;7.480;2022-08-19T04:01:45;20.40;99.90
851;DHT22;412;51.400;7.480;2022-08-19T04:04:11;20.40;99.90
851;DHT22;412;51.400;7.480;2022-08-19T04:06:38;20.40;99.90
851;DHT22;412;51.400;7.480;2022-08-19T04:09:07;20.40;99.90
851;DHT22;412;51.400;7.480;2022-08-19T04:11:49;20.50;99.90
851;DHT22;412;51.400;7.480;2022-08-19T04:14:18;20.50;99.90
851;DHT22;412;51.400;7.480;2022-08-19T04:16:45;20.50;99.90
851;DHT22;412;51.400;7.480;2022-08-19T04:19:12;20.50;99.90
851;DHT22;412;51.400;7.480;2022-08-19T04:21:38;20.50;99.90
851;DHT22;412;51.400;7.480;2022-08-19T04:24:04;20.40;99.90
851;DHT22;412;51.400;7.480;2022-08-19T04:26:33;20.40;99.90
851;DHT22;412;51.400;7.480;2022-08-19T04:29:05;20.40;99.90
851;DHT22;412;51.400;7.480;2022-08-19T04:31:32;20.40;99.90
851;DHT22;412;51.400;7.480;2022-08-19T04:34:06;20.30;99.90
851;DHT22;412;51.400;7.480;2022-08-19T04:36:35;20.30;99.90
851;DHT22;412;51.400;7.480;2022-08-19T04:39:08;20.30;99.90
851;DHT22;412;51.400;7.480;2022-08-19T04:41:35;20.30;99.90
851;DHT22;412;51.400;7.480;2022-08-19T04:44:20;20.20;99.90
851;DHT22;412;51.400;7.480;2022-08-19T04:46:47;20.20;99.90
851;DHT22;412;51.400;7.480;2022-08-19T04:49:14;20.20;99.90
851;DHT22;412;51.400;7.480;2022-08-19T04:51:43;20.20;99.90
851;DHT22;412;51.400;7.480;2022-08-19T04:54:09;20.20;99.90
851;DHT22;412;51.400;7.480;2022-08-19T04:56:35;20.20;99.90
851;DHT22;412;51.400;7.480;2022-08-19T04:59:01;20.20;99.90
851;DHT22;412;51.400;7.480;2022-08-19T05:01:31;20.30;99.90
851;DHT22;412;51.400;7.480;2022-08-19T05:04:01;20.30;99.90
851;DHT22;412;51.400;7.480;2022-08-19T05:06:30;20.20;99.90
851;DHT22;412;51.400;7.480;2022-08-19T05:08:59;20.30;99.90
851;DHT22;412;51.400;7.480;2022-08-19T05:11:28;20.20;99.90
851;DHT22;412;51.400;7.480;2022-08-19T05:13:54;20.30;99.90
851;DHT22;412;51.400;7.480;2022-08-19T05:16:21;20.30;99.90
851;DHT22;412;51.400;7.480;2022-08-19T05:18:47;20.30;99.90
851;DHT22;412;51.400;7.480;2022-08-19T05:21:32;20.30;99.90
851;DHT22;412;51.400;7.480;2022-08-19T05:24:17;20.30;99.90
851;DHT22;412;51.400;7.480;2022-08-19T05:26:47;20.30;99.90
851;DHT22;412;51.400;7.480;2022-08-19T05:29:15;20.30;99.90
851;DHT22;412;51.400;7.480;2022-08-19T05:31:42;20.40;99.90
851;DHT22;412;51.400;7.480;2022-08-19T05:34:08;20.40;99.90
851;DHT22;412;51.400;7.480;2022-08-19T05:36:38;20.50;99.90
851;DHT22;412;51.400;7.480;2022-08-19T05:39:20;20.40;99.90
851;DHT22;412;51.400;7.480;2022-08-19T05:41:48;20.40;99.90
851;DHT22;412;51.400;7.480;2022-08-19T05:44:16;20.50;99.90
851;DHT22;412;51.400;7.480;2022-08-19T05:46:45;20.40;99.90
851;DHT22;412;51.400;7.480;2022-08-19T05:49:15;20.40;99.90
851;DHT22;412;51.400;7.480;2022-08-19T05:51:41;20.50;99.90
851;DHT22;412;51.400;7.480;2022-08-19T05:54:07;20.50;99.90
851;DHT22;412;51.400;7.480;2022-08-19T05:56:34;20.50;99.90
851;DHT22;412;51.400;7.480;2022-08-19T05:59:02;20.60;99.90
851;DHT22;412;51.400;7.480;2022-08-19T06:01:29;20.60;99.90
851;DHT22;412;51.400;7.480;2022-08-19T06:03:55;20.60;99.90
851;DHT22;412;51.400;7.480;2022-08-19T06:06:21;20.60;99.90
851;DHT22;412;51.400;7.480;2022-08-19T06:08:47;20.70;99.90
851;DHT22;412;51.400;7.480;2022-08-19T06:13:45;20.70;99.90
851;DHT22;412;51.400;7.480;2022-08-19T06:16:13;20.70;99.90
851;DHT22;412;51.400;7.480;2022-08-19T06:18:51;20.90;99.90
851;DHT22;412;51.400;7.480;2022-08-19T06:21:21;21.40;99.90
851;DHT22;412;51.400;7.480;2022-08-19T06:23:48;21.80;99.90
851;DHT22;412;51.400;7.480;2022-08-19T06:26:15;22.20;99.90
851;DHT22;412;51.400;7.480;2022-08-19T06:28:41;22.50;99.90
851;DHT22;412;51.400;7.480;2022-08-19T06:31:10;22.80;99.90
851;DHT22;412;51.400;7.480;2022-08-19T06:33:36;23.00;99.90
851;DHT22;412;51.400;7.480;2022-08-19T06:36:03;23.10;99.90
851;DHT22;412;51.400;7.480;2022-08-19T06:38:28;23.30;99.90
851;DHT22;412;51.400;7.480;2022-08-19T06:41:03;23.40;99.90
851;DHT22;412;51.400;7.480;2022-08-19T06:43:29;23.50;99.90
851;DHT22;412;51.400;7.480;2022-08-19T06:45:54;23.60;99.90
851;DHT22;412;51.400;7.480;2022-08-19T06:48:20;23.60;99.90
851;DHT22;412;51.400;7.480;2022-08-19T06:50:46;23.70;99.90
851;DHT22;412;51.400;7.480;2022-08-19T06:53:12;23.80;99.90
851;DHT22;412;51.400;7.480;2022-08-19T06:55:38;23.80;99.90
851;DHT22;412;51.400;7.480;2022-08-19T06:58:06;23.90;99.90
851;DHT22;412;51.400;7.480;2022-08-19T07:00:32;23.90;99.90
851;DHT22;412;51.400;7.480;2022-08-19T07:02:59;23.90;99.90
851;DHT22;412;51.400;7.480;2022-08-19T07:05:26;24.00;99.90
851;DHT22;412;51.400;7.480;2022-08-19T07:07:51;24.00;99.40
851;DHT22;412;51.400;7.480;2022-08-19T07:10:17;24.00;99.90
851;DHT22;412;51.400;7.480;2022-08-19T07:12:43;24.00;99.70
851;DHT22;412;51.400;7.480;2022-08-19T07:15:10;24.00;99.40
851;DHT22;412;51.400;7.480;2022-08-19T07:17:37;24.10;99.40
851;DHT22;412;51.400;7.480;2022-08-19T07:20:05;24.10;99.20
851;DHT22;412;51.400;7.480;2022-08-19T07:22:33;24.20;99.20
851;DHT22;412;51.400;7.480;2022-08-19T07:24:59;24.20;99.20
851;DHT22;412;51.400;7.480;2022-08-19T07:27:25;24.30;99.10
851;DHT22;412;51.400;7.480;2022-08-19T07:29:52;24.20;99.20
851;DHT22;412;51.400;7.480;2022-08-19T07:32:18;24.00;99.30
851;DHT22;412;51.400;7.480;2022-08-19T07:34:44;23.80;99.90
851;DHT22;412;51.400;7.480;2022-08-19T07:37:10;23.60;99.90
851;DHT22;412;51.400;7.480;2022-08-19T07:39:37;23.70;99.90
851;DHT22;412;51.400;7.480;2022-08-19T07:42:07;23.70;99.90
851;DHT22;412;51.400;7.480;2022-08-19T07:44:33;23.80;99.90
851;DHT22;412;51.400;7.480;2022-08-19T07:46:59;23.90;99.90
851;DHT22;412;51.400;7.480;2022-08-19T07:49:25;24.00;99.90
851;DHT22;412;51.400;7.480;2022-08-19T07:51:57;24.10;99.90
851;DHT22;412;51.400;7.480;2022-08-19T07:54:26;24.10;99.90
851;DHT22;412;51.400;7.480;2022-08-19T07:56:52;24.20;99.90
851;DHT22;412;51.400;7.480;2022-08-19T07:59:19;24.30;99.90
851;DHT22;412;51.400;7.480;2022-08-19T08:01:46;24.40;99.90
851;DHT22;412;51.400;7.480;2022-08-19T08:04:12;24.50;99.90
851;DHT22;412;51.400;7.480;2022-08-19T08:06:57;24.50;99.90
851;DHT22;412;51.400;7.480;2022-08-19T08:09:43;24.60;99.90
851;DHT22;412;51.400;7.480;2022-08-19T08:12:21;24.70;99.90
851;DHT22;412;51.400;7.480;2022-08-19T08:14:52;24.70;99.90
851;DHT22;412;51.400;7.480;2022-08-19T08:17:20;24.80;99.90
851;DHT22;412;51.400;7.480;2022-08-19T08:19:47;24.90;99.90
851;DHT22;412;51.400;7.480;2022-08-19T08:22:17;24.90;99.80
851;DHT22;412;51.400;7.480;2022-08-19T08:25:11;24.90;99.30
851;DHT22;412;51.400;7.480;2022-08-19T08:27:39;25.00;99.40
851;DHT22;412;51.400;7.480;2022-08-19T08:30:17;25.00;99.80
851;DHT22;412;51.400;7.480;2022-08-19T08:32:43;25.00;99.90
851;DHT22;412;51.400;7.480;2022-08-19T08:35:11;25.00;99.90
851;DHT22;412;51.400;7.480;2022-08-19T08:37:38;25.10;99.90
851;DHT22;412;51.400;7.480;2022-08-19T08:43:03;25.30;99.30
851;DHT22;412;51.400;7.480;2022-08-19T08:45:31;25.30;99.80
851;DHT22;412;51.400;7.480;2022-08-19T08:48:04;25.30;98.90
851;DHT22;412;51.400;7.480;2022-08-19T08:50:41;25.30;99.90
851;DHT22;412;51.400;7.480;2022-08-19T08:53:09;25.20;99.50
851;DHT22;412;51.400;7.480;2022-08-19T08:55:36;25.20;99.60
851;DHT22;412;51.400;7.480;2022-08-19T08:58:22;25.30;99.50
851;DHT22;412;51.400;7.480;2022-08-19T09:00:49;25.50;99.70
851;DHT22;412;51.400;7.480;2022-08-19T09:03:24;25.60;99.10
851;DHT22;412;51.400;7.480;2022-08-19T09:06:01;25.60;98.90
851;DHT22;412;51.400;7.480;2022-08-19T09:11:28;25.70;98.80
851;DHT22;412;51.400;7.480;2022-08-19T09:16:44;25.90;98.00
851;DHT22;412;51.400;7.480;2022-08-19T09:19:10;26.00;98.20
851;DHT22;412;51.400;7.480;2022-08-19T09:21:36;26.10;97.30
851;DHT22;412;51.400;7.480;2022-08-19T09:24:04;26.10;96.50
851;DHT22;412;51.400;7.480;2022-08-19T09:26:32;26.20;96.30
851;DHT22;412;51.400;7.480;2022-08-19T09:28:58;26.30;95.80
851;DHT22;412;51.400;7.480;2022-08-19T09:31:28;26.40;95.30
851;DHT22;412;51.400;7.480;2022-08-19T09:33:55;26.50;95.70
851;DHT22;412;51.400;7.480;2022-08-19T09:36:27;26.70;94.70
851;DHT22;412;51.400;7.480;2022-08-19T09:38:55;26.70;95.10
851;DHT22;412;51.400;7.480;2022-08-19T09:41:24;26.80;93.90
851;DHT22;412;51.400;7.480;2022-08-19T09:43:52;26.80;94.40
851;DHT22;412;51.400;7.480;2022-08-19T09:46:20;26.70;94.60
851;DHT22;412;51.400;7.480;2022-08-19T09:48:49;26.60;94.50
851;DHT22;412;51.400;7.480;2022-08-19T09:51:21;26.70;94.10
851;DHT22;412;51.400;7.480;2022-08-19T09:53:49;26.90;93.30
851;DHT22;412;51.400;7.480;2022-08-19T09:56:22;27.10;93.60
851;DHT22;412;51.400;7.480;2022-08-19T09:58:48;27.20;93.20
851;DHT22;412;51.400;7.480;2022-08-19T10:01:23;27.20;92.10
851;DHT22;412;51.400;7.480;2022-08-19T10:03:51;27.30;92.60
851;DHT22;412;51.400;7.480;2022-08-19T10:06:19;27.30;92.70
851;DHT22;412;51.400;7.480;2022-08-19T10:08:45;27.30;91.90
851;DHT22;412;51.400;7.480;2022-08-19T10:11:11;27.30;92.20
851;DHT22;412;51.400;7.480;2022-08-19T10:13:37;27.20;92.40
851;DHT22;412;51.400;7.480;2022-08-19T10:16:06;27.10;91.70
851;DHT22;412;51.400;7.480;2022-08-19T10:18:33;27.00;92.50
851;DHT22;412;51.400;7.480;2022-08-19T10:21:27;26.90;92.30
851;DHT22;412;51.400;7.480;2022-08-19T10:23:55;27.10;92.30
851;DHT22;412;51.400;7.480;2022-08-19T10:26:26;27.20;92.20
851;DHT22;412;51.400;7.480;2022-08-19T10:28:52;27.40;91.80
851;DHT22;412;51.400;7.480;2022-08-19T10:31:21;27.50;90.90
851;DHT22;412;51.400;7.480;2022-08-19T10:33:47;27.60;90.90
851;DHT22;412;51.400;7.480;2022-08-19T10:36:16;27.50;90.40
851;DHT22;412;51.400;7.480;2022-08-19T10:38:44;27.50;90.40
851;DHT22;412;51.400;7.480;2022-08-19T10:41:17;27.40;90.90
851;DHT22;412;51.400;7.480;2022-08-19T10:43:44;27.30;91.00
851;DHT22;412;51.400;7.480;2022-08-19T10:46:14;27.20;91.50
851;DHT22;412;51.400;7.480;2022-08-19T10:48:44;27.10;92.10
851;DHT22;412;51.400;7.480;2022-08-19T10:51:10;27.00;93.70
851;DHT22;412;51.400;7.480;2022-08-19T10:53:56;26.90;93.80
851;DHT22;412;51.400;7.480;2022-08-19T10:56:22;26.90;94.40
851;DHT22;412;51.400;7.480;2022-08-19T10:59:06;26.90;93.40
851;DHT22;412;51.400;7.480;2022-08-19T11:01:34;26.90;93.30
851;DHT22;412;51.400;7.480;2022-08-19T11:04:01;27.00;92.30
851;DHT22;412;51.400;7.480;2022-08-19T11:06:27;27.20;90.70
851;DHT22;412;51.400;7.480;2022-08-19T11:08:54;27.20;90.00
851;DHT22;412;51.400;7.480;2022-08-19T11:11:21;27.30;92.80
851;DHT22;412;51.400;7.480;2022-08-19T11:13:47;27.40;94.00
851;DHT22;412;51.400;7.480;2022-08-19T11:16:17;27.40;92.00
851;DHT22;412;51.400;7.480;2022-08-19T11:18:53;27.40;91.40
851;DHT22;412;51.400;7.480;2022-08-19T11:21:31;27.50;91.60
851;DHT22;412;51.400;7.480;2022-08-19T11:24:00;27.50;91.80
851;DHT22;412;51.400;7.480;2022-08-19T11:26:27;27.50;91.10
851;DHT22;412;51.400;7.480;2022-08-19T11:28:53;27.50;90.50
851;DHT22;412;51.400;7.480;2022-08-19T11:31:25;27.60;91.30
851;DHT22;412;51.400;7.480;2022-08-19T11:33:52;27.60;91.70
851;DHT22;412;51.400;7.480;2022-08-19T11:36:21;27.70;91.60
851;DHT22;412;51.400;7.480;2022-08-19T11:38:50;27.80;90.60
851;DHT22;412;51.400;7.480;2022-08-19T11:41:18;27.90;89.30
851;DHT22;412;51.400;7.480;2022-08-19T11:43:44;28.10;89.30
851;DHT22;412;51.400;7.480;2022-08-19T11:46:12;27.70;90.60
851;DHT22;412;51.400;7.480;2022-08-19T11:48:39;27.20;90.30
851;DHT22;412;51.400;7.480;2022-08-19T11:51:09;27.20;88.50
851;DHT22;412;51.400;7.480;2022-08-19T11:53:37;27.40;90.70
851;DHT22;412;51.400;7.480;2022-08-19T11:56:04;27.60;89.60
851;DHT22;412;51.400;7.480;2022-08-19T11:58:31;27.70;90.40
851;DHT22;412;51.400;7.480;2022-08-19T12:00:57;27.80;90.60
851;DHT22;412;51.400;7.480;2022-08-19T12:03:23;27.80;90.10
851;DHT22;412;51.400;7.480;2022-08-19T12:05:49;27.90;90.20
851;DHT22;412;51.400;7.480;2022-08-19T12:08:16;28.00;86.20
851;DHT22;412;51.400;7.480;2022-08-19T12:10:43;28.20;83.50
851;DHT22;412;51.400;7.480;2022-08-19T12:13:10;28.40;80.20
851;DHT22;412;51.400;7.480;2022-08-19T12:15:40;28.60;79.70
851;DHT22;412;51.400;7.480;2022-08-19T12:18:07;28.80;77.20
851;DHT22;412;51.400;7.480;2022-08-19T12:20:35;28.90;77.50
851;DHT22;412;51.400;7.480;2022-08-19T12:23:01;29.10;75.80
851;DHT22;412;51.400;7.480;2022-08-19T12:25:27;29.20;76.80
851;DHT22;412;51.400;7.480;2022-08-19T12:27:53;29.30;77.00
851;DHT22;412;51.400;7.480;2022-08-19T12:30:19;29.40;74.10
851;DHT22;412;51.400;7.480;2022-08-19T12:32:45;29.40;74.50
851;DHT22;412;51.400;7.480;2022-08-19T12:35:11;29.50;73.80
851;DHT22;412;51.400;7.480;2022-08-19T12:37:38;29.50;73.20
851;DHT22;412;51.400;7.480;2022-08-19T12:40:05;29.60;75.20
851;DHT22;412;51.400;7.480;2022-08-19T12:42:30;29.60;73.50
851;DHT22;412;51.400;7.480;2022-08-19T12:44:56;29.60;72.10
851;DHT22;412;51.400;7.480;2022-08-19T12:47:22;29.70;70.30
851;DHT22;412;51.400;7.480;2022-08-19T12:49:48;29.70;69.40
851;DHT22;412;51.400;7.480;2022-08-19T12:52:14;29.80;70.00
851;DHT22;412;51.400;7.480;2022-08-19T12:54:41;29.80;70.90
851;DHT22;412;51.400;7.480;2022-08-19T12:57:09;29.80;71.40
851;DHT22;412;51.400;7.480;2022-08-19T12:59:37;29.80;69.80
851;DHT22;412;51.400;7.480;2022-08-19T13:02:07;29.80;70.80
851;DHT22;412;51.400;7.480;2022-08-19T13:04:34;29.80;70.20
851;DHT22;412;51.400;7.480;2022-08-19T13:07:07;29.80;68.30
851;DHT22;412;51.400;7.480;2022-08-19T13:09:34;29.80;68.20
851;DHT22;412;51.400;7.480;2022-08-19T13:12:01;29.80;68.50
851;DHT22;412;51.400;7.480;2022-08-19T13:14:29;29.70;68.40
851;DHT22;412;51.400;7.480;2022-08-19T13:16:56;29.70;68.50
851;DHT22;412;51.400;7.480;2022-08-19T13:19:22;29.70;70.70
851;DHT22;412;51.400;7.480;2022-08-19T13:21:50;29.80;71.60
851;DHT22;412;51.400;7.480;2022-08-19T13:24:16;29.70;71.00
851;DHT22;412;51.400;7.480;2022-08-19T13:26:42;29.80;69.90
851;DHT22;412;51.400;7.480;2022-08-19T13:29:08;29.80;68.00
851;DHT22;412;51.400;7.480;2022-08-19T13:31:53;29.70;67.30
851;DHT22;412;51.400;7.480;2022-08-19T13:34:37;29.70;67.90
851;DHT22;412;51.400;7.480;2022-08-19T13:37:04;29.70;68.30
851;DHT22;412;51.400;7.480;2022-08-19T13:39:31;29.70;67.40
851;DHT22;412;51.400;7.480;2022-08-19T13:41:58;29.70;66.40
851;DHT22;412;51.400;7.480;2022-08-19T13:44:26;29.60;66.10
851;DHT22;412;51.400;7.480;2022-08-19T13:47:03;29.60;68.80
851;DHT22;412;51.400;7.480;2022-08-19T13:49:33;29.40;67.40
851;DHT22;412;51.400;7.480;2022-08-19T13:51:58;29.40;71.40
851;DHT22;412;51.400;7.480;2022-08-19T13:54:24;29.30;70.40
851;DHT22;412;51.400;7.480;2022-08-19T13:56:50;29.30;69.80
851;DHT22;412;51.400;7.480;2022-08-19T13:59:16;29.40;68.90
851;DHT22;412;51.400;7.480;2022-08-19T14:01:42;29.40;67.60
851;DHT22;412;51.400;7.480;2022-08-19T14:04:08;29.50;66.40
851;DHT22;412;51.400;7.480;2022-08-19T14:06:34;29.50;67.70
851;DHT22;412;51.400;7.480;2022-08-19T14:09:00;29.50;67.90
851;DHT22;412;51.400;7.480;2022-08-19T14:11:27;29.40;69.30
851;DHT22;412;51.400;7.480;2022-08-19T14:13:53;29.40;66.60
851;DHT22;412;51.400;7.480;2022-08-19T14:16:19;29.40;68.20
851;DHT22;412;51.400;7.480;2022-08-19T14:18:47;29.40;67.00
851;DHT22;412;51.400;7.480;2022-08-19T14:21:19;29.40;65.80
851;DHT22;412;51.400;7.480;2022-08-19T14:23:45;29.50;64.50
851;DHT22;412;51.400;7.480;2022-08-19T14:26:15;29.50;64.00
851;DHT22;412;51.400;7.480;2022-08-19T14:28:42;29.60;65.00
851;DHT22;412;51.400;7.480;2022-08-19T14:31:12;29.60;65.20
851;DHT22;412;51.400;7.480;2022-08-19T14:33:42;29.70;66.20
851;DHT22;412;51.400;7.480;2022-08-19T14:36:07;29.70;65.50
851;DHT22;412;51.400;7.480;2022-08-19T14:38:33;29.70;63.80
851;DHT22;412;51.400;7.480;2022-08-19T14:41:26;29.70;64.50
851;DHT22;412;51.400;7.480;2022-08-19T14:43:53;29.70;65.00
851;DHT22;412;51.400;7.480;2022-08-19T14:46:22;29.70;64.90
851;DHT22;412;51.400;7.480;2022-08-19T14:48:49;29.80;63.70
851;DHT22;412;51.400;7.480;2022-08-19T14:51:15;29.70;64.50
851;DHT22;412;51.400;7.480;2022-08-19T14:53:42;29.60;65.10
851;DHT22;412;51.400;7.480;2022-08-19T14:56:12;29.60;64.10
851;DHT22;412;51.400;7.480;2022-08-19T14:58:40;29.60;65.10
851;DHT22;412;51.400;7.480;2022-08-19T15:01:06;29.60;65.10
851;DHT22;412;51.400;7.480;2022-08-19T15:03:32;29.60;64.80
851;DHT22;412;51.400;7.480;2022-08-19T15:06:00;29.60;63.00
851;DHT22;412;51.400;7.480;2022-08-19T15:08:27;29.50;61.90
851;DHT22;412;51.400;7.480;2022-08-19T15:10:54;29.50;62.90
851;DHT22;412;51.400;7.480;2022-08-19T15:13:19;29.60;63.30
851;DHT22;412;51.400;7.480;2022-08-19T15:15:45;29.60;61.70
851;DHT22;412;51.400;7.480;2022-08-19T15:18:12;29.50;61.40
851;DHT22;412;51.400;7.480;2022-08-19T15:20:38;29.50;60.70
851;DHT22;412;51.400;7.480;2022-08-19T15:23:05;29.50;62.00
851;DHT22;412;51.400;7.480;2022-08-19T15:25:31;29.40;62.40
851;DHT22;412;51.400;7.480;2022-08-19T15:27:58;29.40;63.30
851;DHT22;412;51.400;7.480;2022-08-19T15:30:27;29.40;63.90
851;DHT22;412;51.400;7.480;2022-08-19T15:32:55;29.30;63.60
851;DHT22;412;51.400;7.480;2022-08-19T15:35:22;29.20;63.90
851;DHT22;412;51.400;7.480;2022-08-19T15:37:49;29.00;64.30
851;DHT22;412;51.400;7.480;2022-08-19T15:40:15;29.00;65.30
851;DHT22;412;51.400;7.480;2022-08-19T15:42:41;28.90;65.00
851;DHT22;412;51.400;7.480;2022-08-19T15:45:10;28.80;64.90
851;DHT22;412;51.400;7.480;2022-08-19T15:47:36;28.70;64.80
851;DHT22;412;51.400;7.480;2022-08-19T15:52:32;28.60;64.60
851;DHT22;412;51.400;7.480;2022-08-19T15:54:58;28.60;63.30
851;DHT22;412;51.400;7.480;2022-08-19T15:57:24;28.60;65.40
851;DHT22;412;51.400;7.480;2022-08-19T15:59:50;28.50;65.00
851;DHT22;412;51.400;7.480;2022-08-19T16:02:34;28.40;63.40
851;DHT22;412;51.400;7.480;2022-08-19T16:05:22;28.30;64.70
851;DHT22;412;51.400;7.480;2022-08-19T16:08:07;28.30;65.00
851;DHT22;412;51.400;7.480;2022-08-19T16:10:35;28.20;65.10
851;DHT22;412;51.400;7.480;2022-08-19T16:13:03;28.10;65.90
851;DHT22;412;51.400;7.480;2022-08-19T16:15:30;28.10;67.10
851;DHT22;412;51.400;7.480;2022-08-19T16:17:57;28.00;67.30
851;DHT22;412;51.400;7.480;2022-08-19T16:20:24;27.90;68.40
851;DHT22;412;51.400;7.480;2022-08-19T16:22:51;27.90;68.30
851;DHT22;412;51.400;7.480;2022-08-19T16:25:17;27.90;69.00
851;DHT22;412;51.400;7.480;2022-08-19T16:27:43;27.80;70.00
851;DHT22;412;51.400;7.480;2022-08-19T16:30:09;27.70;69.20
851;DHT22;412;51.400;7.480;2022-08-19T16:32:34;27.60;69.10
851;DHT22;412;51.400;7.480;2022-08-19T16:35:04;27.60;70.00
851;DHT22;412;51.400;7.480;2022-08-19T16:37:30;27.60;69.60
851;DHT22;412;51.400;7.480;2022-08-19T16:39:56;27.50;72.30
851;DHT22;412;51.400;7.480;2022-08-19T16:42:22;27.40;70.10
851;DHT22;412;51.400;7.480;2022-08-19T16:44:48;27.40;70.60
851;DHT22;412;51.400;7.480;2022-08-19T16:47:13;27.30;71.00
851;DHT22;412;51.400;7.480;2022-08-19T16:49:41;27.30;71.80
851;DHT22;412;51.400;7.480;2022-08-19T16:52:08;27.20;71.50
851;DHT22;412;51.400;7.480;2022-08-19T16:54:36;27.20;71.70
851;DHT22;412;51.400;7.480;2022-08-19T16:57:03;27.20;72.10